createdAt,value
2018-08-09T00:01:08.354Z,52.50
2018-08-09T00:03:38.289Z,52.20
2018-08-09T00:06:08.228Z,52.70
2018-08-09T00:08:38.251Z,53.60
2018-08-09T00:11:08.103Z,53.40
2018-08-09T00:13:38.391Z,53.60
2018-08-09T00:16:08.400Z,53.00
2018-08-09T00:18:38.048Z,53.00
2018-08-09T00:21:07.868Z,52.80
2018-08-09T00:23:38.539Z,53.30
2018-08-09T00:26:09.408Z,53.70
2018-08-09T00:28:39.441Z,53.20
2018-08-09T00:31:09.563Z,53.00
2018-08-09T00:33:39.540Z,53.10
2018-08-09T00:36:09.253Z,52.90
2018-08-09T00:38:39.221Z,53.90
2018-08-09T00:41:09.264Z,54.50
2018-08-09T00:43:39.199Z,56.60
2018-08-09T00:46:09.136Z,55.30
2018-08-09T00:48:39.261Z,55.20
2018-08-09T00:51:09.123Z,54.70
2018-08-09T00:53:39.319Z,54.30
2018-08-09T00:56:09.239Z,54.40
2018-08-09T00:58:39.114Z,54.50
2018-08-09T01:01:08.996Z,53.70
2018-08-09T01:03:38.924Z,53.30
2018-08-09T01:06:08.824Z,53.50
2018-08-09T01:08:41.448Z,53.70
2018-08-09T01:11:11.263Z,53.60
2018-08-09T01:13:41.200Z,53.40
2018-08-09T01:16:11.044Z,53.80
2018-08-09T01:18:41.028Z,54.70
2018-08-09T01:21:10.979Z,55.50
2018-08-09T01:23:40.986Z,55.30
2018-08-09T01:26:10.953Z,55.20
2018-08-09T01:28:40.921Z,55.20
2018-08-09T01:31:10.830Z,54.50
2018-08-09T01:33:40.758Z,54.70
2018-08-09T01:36:10.638Z,55.10
2018-08-09T01:38:40.413Z,55.10
2018-08-09T01:41:10.325Z,55.00
2018-08-09T01:43:55.686Z,55.50
2018-08-09T01:46:25.955Z,55.60
2018-08-09T01:48:56.550Z,55.60
2018-08-09T01:51:27.429Z,55.60
2018-08-09T01:53:57.579Z,56.00
2018-08-09T01:56:27.416Z,56.80
2018-08-09T01:58:57.245Z,56.50
2018-08-09T02:01:27.100Z,55.80
2018-08-09T02:03:57.144Z,55.40
2018-08-09T02:06:26.883Z,55.20
2018-08-09T02:09:00.763Z,55.20
2018-08-09T02:11:30.455Z,55.90
2018-08-09T02:14:00.948Z,56.20
2018-08-09T02:16:31.005Z,56.20
2018-08-09T02:19:01.168Z,56.40
2018-08-09T02:21:32.078Z,55.50
2018-08-09T02:24:02.693Z,56.40
2018-08-09T02:26:32.488Z,56.30
2018-08-09T02:29:02.279Z,56.40
2018-08-09T02:31:32.204Z,56.80
2018-08-09T02:34:02.153Z,57.40
2018-08-09T02:36:31.994Z,57.80
2018-08-09T02:39:01.800Z,58.00
2018-08-09T02:41:31.713Z,58.00
2018-08-09T02:44:01.623Z,57.90
2018-08-09T02:46:31.445Z,57.80
2018-08-09T02:49:01.392Z,57.80
2018-08-09T02:51:31.320Z,57.70
2018-08-09T02:54:01.281Z,58.00
2018-08-09T02:56:31.203Z,57.90
2018-08-09T02:59:01.202Z,57.30
2018-08-09T03:01:33.965Z,57.70
2018-08-09T03:04:03.871Z,57.60
2018-08-09T03:06:33.599Z,57.50
2018-08-09T03:09:03.783Z,57.50
2018-08-09T03:11:33.573Z,57.90
2018-08-09T03:14:03.263Z,57.60
2018-08-09T03:16:33.113Z,56.90
2018-08-09T03:19:03.173Z,56.90
2018-08-09T03:21:33.078Z,56.80
2018-08-09T03:24:02.970Z,57.00
2018-08-09T03:26:32.849Z,56.70
2018-08-09T03:29:02.767Z,56.70
2018-08-09T03:31:32.533Z,56.20
2018-08-09T03:34:02.482Z,56.50
2018-08-09T03:36:32.160Z,56.60
2018-08-09T03:39:02.166Z,57.70
2018-08-09T03:41:32.098Z,58.00
2018-08-09T03:44:02.193Z,58.00
2018-08-09T03:46:32.067Z,57.40
2018-08-09T03:49:02.022Z,58.10
2018-08-09T03:51:32.213Z,58.40
2018-08-09T03:54:02.090Z,58.30
2018-08-09T03:56:31.991Z,57.30
2018-08-09T03:59:02.074Z,57.30
2018-08-09T04:01:32.308Z,58.10
2018-08-09T04:04:02.349Z,57.80
2018-08-09T04:06:32.108Z,58.00
2018-08-09T04:09:01.777Z,56.60
2018-08-09T04:11:31.550Z,55.10
2018-08-09T04:14:01.388Z,54.00
2018-08-09T04:16:31.324Z,54.00
2018-08-09T04:19:01.135Z,53.30
2018-08-09T04:21:31.153Z,52.60
2018-08-09T04:24:01.155Z,53.50
2018-08-09T04:26:31.365Z,53.50
2018-08-09T04:29:01.302Z,53.10
2018-08-09T04:31:31.094Z,52.90
2018-08-09T04:34:00.939Z,52.90
2018-08-09T04:36:30.833Z,52.90
2018-08-09T04:39:00.653Z,53.80
2018-08-09T04:41:30.538Z,54.90
2018-08-09T04:44:00.171Z,56.10
2018-08-09T04:46:30.063Z,56.90
2018-08-09T04:48:59.979Z,58.00
2018-08-09T04:51:30.028Z,58.70
2018-08-09T04:53:59.858Z,59.40
2018-08-09T04:56:29.804Z,59.70
2018-08-09T04:58:59.579Z,59.60
2018-08-09T05:01:29.520Z,59.30
2018-08-09T05:03:59.299Z,59.00
2018-08-09T05:06:29.165Z,59.70
2018-08-09T05:08:58.858Z,59.00
2018-08-09T05:11:29.478Z,58.90
2018-08-09T05:13:59.318Z,58.90
2018-08-09T05:16:29.311Z,59.70
2018-08-09T05:18:59.131Z,59.50
2018-08-09T05:21:29.097Z,58.70
2018-08-09T05:23:58.955Z,59.60
2018-08-09T05:26:28.845Z,59.10
2018-08-09T05:28:58.808Z,59.10
2018-08-09T05:31:28.640Z,59.00
2018-08-09T05:33:58.511Z,58.90
2018-08-09T05:36:28.678Z,58.40
2018-08-09T05:38:58.611Z,58.40
2018-08-09T05:41:28.573Z,58.50
2018-08-09T05:43:58.262Z,58.10
2018-08-09T05:46:28.153Z,58.20
2018-08-09T05:48:58.128Z,58.50
2018-08-09T05:51:28.074Z,58.50
2018-08-09T05:53:58.468Z,58.50
2018-08-09T05:56:28.582Z,58.30
2018-08-09T05:58:58.607Z,58.70
2018-08-09T06:01:28.520Z,58.40
2018-08-09T06:03:58.394Z,57.90
2018-08-09T06:06:28.301Z,57.60
2018-08-09T06:08:59.114Z,57.00
2018-08-09T06:11:30.842Z,57.30
2018-08-09T06:14:01.275Z,57.40
2018-08-09T06:16:32.318Z,57.20
2018-08-09T06:19:03.312Z,56.80
2018-08-09T06:21:33.100Z,57.00
2018-08-09T06:24:02.998Z,56.40
2018-08-09T06:26:32.893Z,56.60
2018-08-09T06:29:02.828Z,57.20
2018-08-09T06:31:32.695Z,56.10
2018-08-09T06:34:02.762Z,56.60
2018-08-09T06:36:32.792Z,55.50
2018-08-09T06:39:03.072Z,55.50
2018-08-09T06:41:32.954Z,55.40
2018-08-09T06:44:02.847Z,55.70
2018-08-09T06:46:32.799Z,56.00
2018-08-09T06:49:03.013Z,55.20
2018-08-09T06:51:33.042Z,55.00
2018-08-09T06:54:02.883Z,55.20
2018-08-09T06:56:33.102Z,55.00
2018-08-09T06:59:03.273Z,54.80
2018-08-09T07:01:33.223Z,54.40
2018-08-09T07:04:03.547Z,54.50
2018-08-09T07:06:33.402Z,54.10
2018-08-09T07:09:03.505Z,54.00
2018-08-09T07:11:33.783Z,53.30
2018-08-09T07:14:03.956Z,53.50
2018-08-09T07:16:33.771Z,53.20
2018-08-09T07:19:03.493Z,53.40
2018-08-09T07:21:33.514Z,54.20
2018-08-09T07:24:03.758Z,53.10
2018-08-09T07:26:33.952Z,53.70
2018-08-09T07:29:04.008Z,53.00
2018-08-09T07:31:34.185Z,52.60
2018-08-09T07:34:04.531Z,52.00
2018-08-09T07:36:34.694Z,52.70
2018-08-09T07:39:06.517Z,52.90
2018-08-09T07:41:36.783Z,53.00
2018-08-09T07:44:06.641Z,52.80
2018-08-09T07:46:36.702Z,52.90
2018-08-09T07:49:06.784Z,53.50
2018-08-09T07:51:36.864Z,54.50
2018-08-09T07:54:06.756Z,54.90
2018-08-09T07:56:36.801Z,54.40
2018-08-09T07:59:06.878Z,54.20
2018-08-09T08:01:36.953Z,54.20
2018-08-09T08:04:06.896Z,54.10
2018-08-09T08:06:36.762Z,54.00
2018-08-09T08:09:10.503Z,53.90
2018-08-09T08:11:40.694Z,54.00
2018-08-09T08:14:10.832Z,54.00
2018-08-09T08:16:40.842Z,53.70
2018-08-09T08:19:10.919Z,54.00
2018-08-09T08:21:41.045Z,54.10
2018-08-09T08:24:11.033Z,54.30
2018-08-09T08:26:41.139Z,53.90
2018-08-09T08:29:11.018Z,54.10
2018-08-09T08:31:41.142Z,54.70
2018-08-09T08:34:11.072Z,54.80
2018-08-09T08:36:41.280Z,54.10
2018-08-09T08:39:11.594Z,54.00
2018-08-09T08:41:41.588Z,53.80
2018-08-09T08:44:11.603Z,53.50
2018-08-09T08:46:41.430Z,54.10
2018-08-09T08:49:12.438Z,54.00
2018-08-09T08:51:42.373Z,53.80
2018-08-09T08:54:12.474Z,54.20
2018-08-09T08:56:42.555Z,54.70
2018-08-09T08:59:12.700Z,55.00
2018-08-09T09:01:42.702Z,55.00
2018-08-09T09:04:12.802Z,55.30
2018-08-09T09:06:43.054Z,55.30
2018-08-09T09:09:14.149Z,55.00
2018-08-09T09:11:44.027Z,54.50
2018-08-09T09:14:14.267Z,54.10
2018-08-09T09:16:44.272Z,54.70
2018-08-09T09:19:14.306Z,54.20
2018-08-09T09:21:44.341Z,53.80
2018-08-09T09:24:14.219Z,54.20
2018-08-09T09:26:44.343Z,54.10
2018-08-09T09:29:14.514Z,54.10
2018-08-09T09:31:44.559Z,54.10
2018-08-09T09:34:14.644Z,54.30
2018-08-09T09:36:44.673Z,54.10
2018-08-09T09:39:14.619Z,54.70
2018-08-09T09:41:44.614Z,55.00
2018-08-09T09:44:14.781Z,54.00
2018-08-09T09:46:44.613Z,54.30
2018-08-09T09:49:14.656Z,54.50
2018-08-09T09:51:44.548Z,54.60
2018-08-09T09:54:15.244Z,54.30
2018-08-09T09:56:46.224Z,54.10
2018-08-09T09:59:16.093Z,54.30
2018-08-09T10:01:46.144Z,54.70
2018-08-09T10:04:16.120Z,54.20
2018-08-09T10:06:46.025Z,54.20
2018-08-09T10:09:15.992Z,53.90
2018-08-09T10:11:45.971Z,53.60
2018-08-09T10:14:16.193Z,53.70
2018-08-09T10:16:46.286Z,53.90
2018-08-09T10:19:16.334Z,53.70
2018-08-09T10:21:46.487Z,53.50
2018-08-09T10:24:16.592Z,53.60
2018-08-09T10:26:46.774Z,53.40
2018-08-09T10:29:16.818Z,53.30
2018-08-09T10:31:46.867Z,53.30
2018-08-09T10:34:16.828Z,53.40
2018-08-09T10:36:46.879Z,53.90
2018-08-09T10:39:16.852Z,53.60
2018-08-09T10:41:46.971Z,53.90
2018-08-09T10:44:16.844Z,53.80
2018-08-09T10:46:46.874Z,54.40
2018-08-09T10:49:17.145Z,54.30
2018-08-09T10:51:46.914Z,53.70
2018-08-09T10:54:16.922Z,53.50
2018-08-09T10:56:47.025Z,53.40
2018-08-09T10:59:17.114Z,53.50
2018-08-09T11:01:48.179Z,53.70
2018-08-09T11:04:18.652Z,53.10
2018-08-09T11:06:48.799Z,52.80
2018-08-09T11:09:18.933Z,52.90
2018-08-09T11:11:48.833Z,52.40
2018-08-09T11:14:18.933Z,52.70
2018-08-09T11:16:49.050Z,52.60
2018-08-09T11:19:19.099Z,52.60
2018-08-09T11:21:49.094Z,52.60
2018-08-09T11:24:19.004Z,52.70
2018-08-09T11:26:49.099Z,51.70
2018-08-09T11:29:25.618Z,51.80
2018-08-09T11:31:55.737Z,51.50
2018-08-09T11:34:25.590Z,51.40
2018-08-09T11:36:55.668Z,51.30
2018-08-09T11:39:27.808Z,50.70
2018-08-09T11:41:59.072Z,50.70
2018-08-09T11:44:29.062Z,51.30
2018-08-09T11:46:59.004Z,51.10
2018-08-09T11:49:33.159Z,51.20
2018-08-09T11:52:03.238Z,51.00
2018-08-09T11:54:33.156Z,50.60
2018-08-09T11:57:03.455Z,51.10
2018-08-09T11:59:33.878Z,50.90
2018-08-09T12:02:03.881Z,51.80
2018-08-09T12:04:33.744Z,50.80
2018-08-09T12:07:03.822Z,51.20
2018-08-09T12:09:34.205Z,51.30
2018-08-09T12:12:04.327Z,51.30
2018-08-09T12:14:34.643Z,51.20
2018-08-09T12:17:04.717Z,51.40
2018-08-09T12:19:34.923Z,51.40
2018-08-09T12:22:04.983Z,51.80
2018-08-09T12:24:35.232Z,51.70
2018-08-09T12:27:05.261Z,52.10
2018-08-09T12:29:35.456Z,52.70
2018-08-09T12:32:06.187Z,53.40
2018-08-09T12:34:36.237Z,54.00
2018-08-09T12:37:06.521Z,54.50
2018-08-09T12:39:36.482Z,55.00
2018-08-09T12:42:07.368Z,55.50
2018-08-09T12:44:37.393Z,55.80
2018-08-09T12:47:07.837Z,56.40
2018-08-09T12:49:38.070Z,56.80
2018-08-09T12:52:08.438Z,57.50
2018-08-09T12:54:44.833Z,57.80
2018-08-09T12:57:14.852Z,58.10
2018-08-09T12:59:44.885Z,58.30
2018-08-09T13:02:14.936Z,58.50
2018-08-09T13:04:44.918Z,58.70
2018-08-09T13:07:14.871Z,59.00
2018-08-09T13:09:45.012Z,59.30
2018-08-09T13:12:15.032Z,59.70
2018-08-09T13:14:44.987Z,59.60
2018-08-09T13:17:15.029Z,59.50
2018-08-09T13:19:44.933Z,59.90
2018-08-09T13:22:14.945Z,59.70
2018-08-09T13:24:45.157Z,59.90
2018-08-09T13:27:21.702Z,59.70
2018-08-09T13:29:51.702Z,59.30
2018-08-09T13:32:21.614Z,56.90
2018-08-09T13:34:51.633Z,52.60
2018-08-09T13:37:21.532Z,50.90
2018-08-09T13:39:51.663Z,49.10
2018-08-09T13:42:21.659Z,47.90
2018-08-09T13:44:51.692Z,47.40
2018-08-09T13:47:21.678Z,50.40
2018-08-09T13:49:51.727Z,54.90
2018-08-09T13:52:21.557Z,62.80
2018-08-09T13:54:51.618Z,67.70
2018-08-09T13:57:21.795Z,68.50
2018-08-09T13:59:51.830Z,66.60
2018-08-09T14:02:21.925Z,65.60
2018-08-09T14:04:51.941Z,67.80
2018-08-09T14:07:21.712Z,70.40
2018-08-09T14:09:51.566Z,72.80
2018-08-09T14:12:22.753Z,75.10
2018-08-09T14:14:53.529Z,76.20
2018-08-09T14:22:16.449Z,80.60
2018-08-09T14:24:46.701Z,83.20
2018-08-09T14:27:17.067Z,82.40
2018-08-09T14:29:47.243Z,82.20
2018-08-09T14:32:17.226Z,83.20
2018-08-09T14:34:47.246Z,83.00
2018-08-09T14:37:17.607Z,82.50
2018-08-09T14:39:47.838Z,80.40
2018-08-09T14:42:18.361Z,79.00
2018-08-09T14:44:48.558Z,78.50
2018-08-09T14:47:18.890Z,77.10
2018-08-09T14:49:49.283Z,75.70
2018-08-09T14:52:19.673Z,75.40
2018-08-09T14:54:49.893Z,75.60
2018-08-09T14:57:19.998Z,73.10
2018-08-09T14:59:50.157Z,70.60
2018-08-09T15:02:20.634Z,69.70
2018-08-09T15:04:51.322Z,73.70
2018-08-09T15:07:21.754Z,70.60
2018-08-09T15:09:51.795Z,69.20
2018-08-09T15:12:21.886Z,68.80
2018-08-09T15:14:52.087Z,69.10
2018-08-09T15:17:22.347Z,70.10
2018-08-09T15:19:52.584Z,70.00
2018-08-09T15:22:22.777Z,68.00
2018-08-09T15:24:52.924Z,67.80
2018-08-09T15:27:23.121Z,67.80
2018-08-09T15:29:59.797Z,65.90
2018-08-09T15:32:29.756Z,62.50
2018-08-09T15:35:00.028Z,63.60
2018-08-09T15:37:30.487Z,61.50
2018-08-09T15:40:00.774Z,60.80
2018-08-09T15:42:31.161Z,60.40
2018-08-09T15:45:01.157Z,62.30
2018-08-09T15:47:31.460Z,62.70
2018-08-09T15:50:01.612Z,62.90
2018-08-09T15:52:31.798Z,62.10
2018-08-09T15:55:01.923Z,64.50
2018-08-09T15:57:32.088Z,65.20
2018-08-09T16:00:02.263Z,65.00
2018-08-09T16:02:32.426Z,65.10
2018-08-09T16:05:02.444Z,66.10
2018-08-09T16:07:32.663Z,65.90
2018-08-09T16:10:03.021Z,66.40
2018-08-09T16:12:33.304Z,66.30
2018-08-09T16:15:04.259Z,66.90
2018-08-09T16:17:35.772Z,66.40
2018-08-09T16:20:08.819Z,67.10
2018-08-09T16:22:38.877Z,66.50
2018-08-09T16:25:15.221Z,66.10
2018-08-09T16:27:46.298Z,65.70
2018-08-09T16:30:20.080Z,65.30
2018-08-09T16:32:50.417Z,63.40
2018-08-09T16:35:20.643Z,64.10
2018-08-09T16:37:50.965Z,64.70
2018-08-09T16:40:25.071Z,65.20
2018-08-09T16:42:55.421Z,65.50
2018-08-09T16:45:25.947Z,65.90
2018-08-09T16:47:56.413Z,66.70
2018-08-09T16:50:27.316Z,65.20
2018-08-09T16:52:57.427Z,63.90
2018-08-09T16:55:27.491Z,62.10
2018-08-09T16:57:57.491Z,60.10
2018-08-09T17:00:27.736Z,58.90
2018-08-09T17:02:57.941Z,58.40
2018-08-09T17:05:31.629Z,57.80
2018-08-09T17:08:02.019Z,57.50
2018-08-09T17:10:32.235Z,57.00
2018-08-09T17:13:02.518Z,55.80
2018-08-09T17:15:32.442Z,53.80
2018-08-09T17:18:02.867Z,52.40
2018-08-09T17:20:48.240Z,50.10
2018-08-09T17:23:18.292Z,49.40
2018-08-09T17:25:48.552Z,48.90
2018-08-09T17:28:18.761Z,47.50
2018-08-09T17:30:49.053Z,46.70
2018-08-09T17:33:19.142Z,46.90
2018-08-09T17:35:49.157Z,46.70
2018-08-09T17:38:22.067Z,47.30
2018-08-09T17:40:52.130Z,47.20
2018-08-09T17:43:22.391Z,47.30
2018-08-09T17:45:53.542Z,46.90
2018-08-09T17:48:23.513Z,46.20
2018-08-09T17:50:53.811Z,46.20
2018-08-09T17:53:23.706Z,46.30
2018-08-09T17:55:55.242Z,48.60
2018-08-09T17:58:25.550Z,50.40
2018-08-09T18:00:55.792Z,51.20
2018-08-09T18:03:25.857Z,53.50
2018-08-09T18:05:57.063Z,54.90
2018-08-09T18:08:28.128Z,56.40
2018-08-09T18:10:58.537Z,57.70
2018-08-09T18:13:28.854Z,58.50
2018-08-09T18:15:59.273Z,59.20
2018-08-09T18:18:29.500Z,60.30
2018-08-09T18:21:00.089Z,60.70
2018-08-09T18:23:33.142Z,61.90
2018-08-09T18:26:03.343Z,62.40
2018-08-09T18:28:33.514Z,61.90
2018-08-09T18:31:04.092Z,62.60
2018-08-09T18:33:34.451Z,64.20
2018-08-09T18:36:05.323Z,70.70
2018-08-09T18:38:35.822Z,74.10
2018-08-09T18:41:06.422Z,74.60
2018-08-09T18:43:37.065Z,72.90
2018-08-09T18:46:07.601Z,74.20
2018-08-09T18:48:38.155Z,75.20
2018-08-09T18:51:08.355Z,74.00
2018-08-09T18:53:38.493Z,76.40
2018-08-09T18:56:08.852Z,77.10
2018-08-09T18:58:39.087Z,78.00
2018-08-09T19:01:09.714Z,78.70
2018-08-09T19:03:39.996Z,79.00
2018-08-09T19:06:10.312Z,79.50
2018-08-09T19:08:40.544Z,78.10
2018-08-09T19:11:10.798Z,79.10
2018-08-09T19:13:41.178Z,77.40
2018-08-09T19:16:11.723Z,76.10
2018-08-09T19:18:42.074Z,77.30
2018-08-09T19:21:12.521Z,75.40
2018-08-09T19:23:42.417Z,74.90
2018-08-09T19:26:12.617Z,73.90
2018-08-09T19:28:42.792Z,76.40
2018-08-09T19:31:12.933Z,74.90
2018-08-09T19:33:43.932Z,74.00
2018-08-09T19:36:14.840Z,74.30
2018-08-09T19:38:46.277Z,74.00
2018-08-09T19:41:17.015Z,75.10
2018-08-09T19:43:48.371Z,73.90
2018-08-09T19:46:19.389Z,74.00
2018-08-09T19:48:49.542Z,72.50
2018-08-09T19:51:19.687Z,71.20
2018-08-09T19:53:49.881Z,71.20
2018-08-09T19:56:20.146Z,70.50
2018-08-09T19:58:50.377Z,69.90
2018-08-09T20:01:20.610Z,70.40
2018-08-09T20:03:50.549Z,70.30
2018-08-09T20:06:21.005Z,69.80
2018-08-09T20:08:51.179Z,70.00
2018-08-09T20:11:21.301Z,68.90
2018-08-09T20:16:36.470Z,68.20
2018-08-09T20:19:06.995Z,70.40
2018-08-09T20:21:36.939Z,70.20
2018-08-09T20:24:06.916Z,68.90
2018-08-09T20:26:36.733Z,68.70
2018-08-09T20:29:06.771Z,68.20
2018-08-09T20:31:37.119Z,68.20
2018-08-09T20:34:07.413Z,68.00
2018-08-09T20:36:37.378Z,67.00
2018-08-09T20:39:13.133Z,67.10
2018-08-09T20:41:43.523Z,66.40
2018-08-09T20:44:16.753Z,66.80
2018-08-09T20:46:46.767Z,66.50
2018-08-09T20:49:17.110Z,67.30
2018-08-09T20:51:47.379Z,67.40
2018-08-09T20:54:17.552Z,67.60
2018-08-09T20:56:47.897Z,66.40
2018-08-09T20:59:17.989Z,66.10
2018-08-09T21:01:48.217Z,66.70
2018-08-09T21:04:18.170Z,67.10
2018-08-09T21:06:48.286Z,66.70
2018-08-09T21:09:18.338Z,66.60
2018-08-09T21:11:48.366Z,65.00
2018-08-09T21:14:18.360Z,65.90
2018-08-09T21:16:48.460Z,66.10
2018-08-09T21:19:18.510Z,65.40
2018-08-09T21:21:48.773Z,64.70
2018-08-09T21:24:18.906Z,63.10
2018-08-09T21:26:49.143Z,63.30
2018-08-09T21:29:19.338Z,62.90
2018-08-09T21:31:49.515Z,63.20
2018-08-09T21:34:19.777Z,63.80
2018-08-09T21:36:49.862Z,63.50
2018-08-09T21:39:20.053Z,64.20
2018-08-09T21:41:53.012Z,64.30
2018-08-09T21:44:23.060Z,63.90
2018-08-09T21:46:52.924Z,64.20
2018-08-09T21:49:23.072Z,64.90
2018-08-09T21:51:53.423Z,65.70
2018-08-09T21:54:23.348Z,66.00
2018-08-09T21:56:53.770Z,66.20
2018-08-09T21:59:24.858Z,66.20
2018-08-09T22:01:54.892Z,66.60
2018-08-09T22:04:24.932Z,66.80
2018-08-09T22:07:00.005Z,67.60
2018-08-09T22:09:42.280Z,68.10
2018-08-09T22:12:17.379Z,70.30
2018-08-09T22:14:52.492Z,69.30
2018-08-09T22:18:29.671Z,69.80
2018-08-09T22:21:05.086Z,71.40
2018-08-09T22:23:35.303Z,71.80
2018-08-09T22:26:05.451Z,71.50
2018-08-09T22:28:35.615Z,71.60
2018-08-09T22:31:05.579Z,71.50
2018-08-09T22:33:35.662Z,71.60
2018-08-09T22:36:05.851Z,71.20
2018-08-09T22:38:36.019Z,71.70
2018-08-09T22:41:06.117Z,72.00
2018-08-09T22:43:36.455Z,71.40
2018-08-09T22:46:06.780Z,71.60
2018-08-09T22:48:36.874Z,71.50
2018-08-09T22:51:06.930Z,71.70
2018-08-09T22:53:36.869Z,71.40
2018-08-09T22:56:06.846Z,71.70
2018-08-09T22:58:36.994Z,72.40
2018-08-09T23:01:07.131Z,72.50
2018-08-09T23:03:37.172Z,73.80
2018-08-09T23:06:07.906Z,75.00
2018-08-09T23:08:38.233Z,74.50
2018-08-09T23:11:08.925Z,74.50
2018-08-09T23:13:39.179Z,75.30
2018-08-09T23:16:09.340Z,77.20
2018-08-09T23:18:39.281Z,77.10
2018-08-09T23:21:09.323Z,77.40
2018-08-09T23:23:39.239Z,78.80
2018-08-09T23:26:09.091Z,78.50
2018-08-09T23:28:38.977Z,78.10
2018-08-09T23:31:09.616Z,79.20
2018-08-09T23:33:40.700Z,78.90
2018-08-09T23:36:11.584Z,77.70
2018-08-09T23:38:41.543Z,78.10
2018-08-09T23:41:11.583Z,77.10
2018-08-09T23:43:41.416Z,76.60
2018-08-09T23:46:11.488Z,77.30
2018-08-09T23:48:41.617Z,76.00
2018-08-09T23:51:11.572Z,75.80
2018-08-09T23:53:41.737Z,76.00
2018-08-09T23:56:11.784Z,75.70
2018-08-09T23:58:42.030Z,76.80
